Time;durP1;ratioP1;P1;durP2;ratioP2;P2;SDS_P1;SDS_P2;PMS_P1;PMS_P2;Temp;Humidity;BMP_temperature;BMP_pressure;BME280_temperature;BME280_humidity;BME280_pressure;Samples;Min_cycle;Max_cycle;Signal;HPM_P1;HPM_P2
2022/08/09 00:03:19;;;;;;;2.38;1.70;;;20.00;84.80;;;;;;10406098;28;20068;-69
2022/08/09 00:08:19;;;;;;;1.98;1.65;;;20.00;84.80;;;;;;10405894;28;20026;-67
2022/08/09 00:13:20;;;;;;;3.53;1.50;;;20.00;84.80;;;;;;10406043;28;20030;-70
2022/08/09 00:18:21;;;;;;;3.28;1.90;;;20.00;84.80;;;;;;10405920;28;20025;-68
2022/08/09 00:23:21;;;;;;;2.60;1.42;;;20.00;84.80;;;;;;10405559;28;20037;-67
2022/08/09 00:28:22;;;;;;;1.67;1.38;;;19.90;84.80;;;;;;10405037;28;20026;-67
2022/08/09 00:33:23;;;;;;;1.52;1.42;;;19.90;84.90;;;;;;10405139;28;20025;-68
2022/08/09 00:38:25;;;;;;;3.08;1.70;;;19.90;84.90;;;;;;10405307;28;20037;-67
2022/08/09 00:43:25;;;;;;;2.88;1.58;;;19.90;84.90;;;;;;10404945;28;20030;-71
2022/08/09 00:48:26;;;;;;;1.95;1.55;;;19.80;84.90;;;;;;10403772;28;20022;-72
2022/08/09 00:53:27;;;;;;;4.20;1.83;;;19.80;84.90;;;;;;10404792;28;20018;-68
2022/08/09 00:58:30;;;;;;;2.08;1.52;;;19.80;85.00;;;;;;10404482;28;20034;-68
2022/08/09 01:04:03;;;;;;;3.03;1.98;;;19.80;85.00;;;;;;10404730;28;20500;-67
2022/08/09 01:09:18;;;;;;;2.20;1.42;;;19.80;85.00;;;;;;10404464;28;20026;-67
2022/08/09 01:14:47;;;;;;;1.77;1.40;;;19.80;85.10;;;;;;10405033;28;20052;-70
2022/08/09 01:19:53;;;;;;;3.40;1.70;;;19.80;85.10;;;;;;10404370;28;20033;-67
2022/08/09 01:25:35;;;;;;;2.83;1.70;;;19.70;85.00;;;;;;10404137;28;20033;-67
2022/08/09 01:30:37;;;;;;;1.80;1.60;;;19.70;85.10;;;;;;10404094;28;20085;-72
2022/08/09 01:35:45;;;;;;;2.65;1.63;;;19.60;85.00;;;;;;10403708;28;20269;-67
2022/08/09 01:40:51;;;;;;;1.90;1.70;;;19.60;85.10;;;;;;10410830;28;20438;-68
2022/08/09 01:45:53;;;;;;;2.38;1.77;;;19.60;85.10;;;;;;10409307;28;20025;-69
2022/08/09 01:50:54;;;;;;;3.22;2.00;;;19.60;85.20;;;;;;10410266;28;20485;-68
2022/08/09 01:55:57;;;;;;;1.73;1.63;;;19.60;85.20;;;;;;10410244;28;20108;-67
2022/08/09 02:00:59;;;;;;;2.20;1.52;;;19.60;85.20;;;;;;10409820;28;20053;-66
2022/08/09 02:06:02;;;;;;;2.28;1.80;;;19.50;85.20;;;;;;10409669;28;20081;-67
2022/08/09 02:11:04;;;;;;;3.53;1.65;;;19.50;85.30;;;;;;10409786;28;20029;-67
2022/08/09 02:16:08;;;;;;;1.98;1.67;;;19.50;85.30;;;;;;10409464;28;20035;-67
2022/08/09 02:21:15;;;;;;;2.85;1.63;;;19.50;85.30;;;;;;10409574;28;20045;-68
2022/08/09 02:26:18;;;;;;;4.07;1.65;;;19.40;85.20;;;;;;10409136;28;20389;-67
2022/08/09 02:31:29;;;;;;;2.88;1.80;;;19.40;85.20;;;;;;10409268;28;20034;-67
2022/08/09 02:36:34;;;;;;;2.53;1.70;;;19.40;85.30;;;;;;10408867;28;20090;-67
2022/08/09 02:41:46;;;;;;;2.35;1.70;;;19.40;85.20;;;;;;10408564;28;20033;-67
2022/08/09 02:46:51;;;;;;;1.85;1.50;;;19.40;85.20;;;;;;10408184;28;20057;-67
2022/08/09 02:51:56;;;;;;;1.55;1.40;;;19.40;85.20;;;;;;10408624;28;20408;-68
2022/08/09 02:57:00;;;;;;;2.38;1.33;;;19.30;85.20;;;;;;10408610;28;20439;-67
2022/08/09 03:02:03;;;;;;;2.55;1.42;;;19.30;85.20;;;;;;10408263;28;20446;-67
2022/08/09 03:07:05;;;;;;;2.33;1.77;;;19.30;85.20;;;;;;10407968;28;20461;-67
2022/08/09 03:12:06;;;;;;;1.85;1.30;;;19.30;85.20;;;;;;10407959;28;20029;-68
2022/08/09 03:17:08;;;;;;;2.35;1.65;;;19.20;85.10;;;;;;10407673;28;20074;-68
2022/08/09 03:22:09;;;;;;;2.15;1.70;;;19.20;85.20;;;;;;10407291;28;20076;-67
2022/08/09 03:27:12;;;;;;;1.77;1.50;;;19.20;85.20;;;;;;10407246;28;20354;-67
2022/08/09 03:32:14;;;;;;;2.85;1.80;;;19.20;85.20;;;;;;10407233;28;20463;-67
2022/08/09 03:37:15;;;;;;;2.25;1.70;;;19.20;85.20;;;;;;10407005;28;20496;-67
2022/08/09 03:42:16;;;;;;;2.53;1.65;;;19.20;85.30;;;;;;10406869;28;20041;-67
2022/08/09 03:47:16;;;;;;;1.98;1.50;;;19.10;85.20;;;;;;10406528;28;20030;-67
2022/08/09 03:52:18;;;;;;;2.20;1.60;;;19.10;85.30;;;;;;10406543;28;20022;-67
2022/08/09 03:57:20;;;;;;;1.35;1.25;;;19.10;85.30;;;;;;10406451;28;20078;-71
2022/08/09 04:02:21;;;;;;;1.80;1.65;;;19.10;85.40;;;;;;10405065;28;20064;-67
2022/08/09 04:07:22;;;;;;;1.80;1.35;;;19.00;85.30;;;;;;10406224;28;20112;-67
2022/08/09 04:12:45;;;;;;;1.90;1.63;;;19.00;85.30;;;;;;10405870;28;20128;-67
2022/08/09 04:17:46;;;;;;;3.50;1.88;;;19.00;85.40;;;;;;10406070;28;20045;-67
2022/08/09 04:22:47;;;;;;;2.03;1.52;;;19.00;85.30;;;;;;10405889;28;20037;-70
2022/08/09 04:27:48;;;;;;;2.45;1.73;;;19.00;85.30;;;;;;10405684;28;20408;-67
2022/08/09 04:32:49;;;;;;;3.85;1.55;;;19.00;85.30;;;;;;10400844;28;20493;-67
2022/08/09 04:37:50;;;;;;;2.15;1.60;;;19.00;85.30;;;;;;10395022;28;20048;-70
2022/08/09 04:42:51;;;;;;;1.90;1.52;;;18.90;85.30;;;;;;10395748;28;20092;-68
2022/08/09 04:47:52;;;;;;;1.40;1.20;;;19.00;85.40;;;;;;10396044;28;20101;-71
2022/08/09 04:52:53;;;;;;;2.55;1.25;;;18.90;85.30;;;;;;10395461;28;20100;-67
2022/08/09 04:57:54;;;;;;;1.20;1.10;;;18.90;85.30;;;;;;10395536;28;20061;-68
2022/08/09 05:02:55;;;;;;;2.10;1.48;;;18.90;85.30;;;;;;10395373;28;20524;-70
2022/08/09 05:07:57;;;;;;;1.83;1.33;;;18.90;85.30;;;;;;10395226;28;20040;-68
2022/08/09 05:12:57;;;;;;;1.30;1.17;;;18.90;85.30;;;;;;10399933;28;20172;-68
2022/08/09 05:17:58;;;;;;;1.77;1.38;;;19.00;85.40;;;;;;10402340;28;20054;-67
2022/08/09 05:22:59;;;;;;;1.70;1.30;;;18.90;85.30;;;;;;10401855;28;20034;-68
2022/08/09 05:28:00;;;;;;;1.77;1.38;;;18.90;85.30;;;;;;10401869;28;20435;-68
2022/08/09 05:33:00;;;;;;;2.50;1.20;;;18.90;85.30;;;;;;10400578;28;20111;-68
2022/08/09 05:38:01;;;;;;;2.83;1.30;;;18.90;85.30;;;;;;10401537;28;20570;-72
2022/08/09 05:43:02;;;;;;;1.92;1.40;;;18.90;85.30;;;;;;10401915;28;20128;-67
2022/08/09 05:48:03;;;;;;;2.67;1.45;;;18.90;85.30;;;;;;10401568;28;20086;-67
2022/08/09 05:53:04;;;;;;;1.10;1.00;;;18.90;85.30;;;;;;10400949;28;20029;-67
2022/08/09 05:58:05;;;;;;;1.27;1.17;;;18.90;85.30;;;;;;10401170;28;20028;-67
2022/08/09 06:03:05;;;;;;;2.25;1.38;;;18.90;85.30;;;;;;10400811;28;20064;-67
2022/08/09 06:08:06;;;;;;;2.08;1.20;;;18.90;85.30;;;;;;10400935;28;20025;-66
2022/08/09 06:13:09;;;;;;;3.10;2.00;;;18.90;85.30;;;;;;10400759;28;20030;-69
2022/08/09 06:18:10;;;;;;;3.60;1.75;;;18.90;85.80;;;;;;10400598;28;20018;-66
2022/08/09 06:23:10;;;;;;;2.17;1.20;;;18.90;85.80;;;;;;10399625;28;21124;-66
2022/08/09 06:28:11;;;;;;;1.95;1.20;;;18.90;85.90;;;;;;10399781;28;20025;-66
2022/08/09 06:33:12;;;;;;;1.55;1.30;;;18.90;85.80;;;;;;10400723;28;20202;-68
2022/08/09 06:38:12;;;;;;;2.80;1.15;;;18.90;85.70;;;;;;10400474;28;20026;-67
2022/08/09 06:43:13;;;;;;;1.92;1.20;;;18.90;85.60;;;;;;10400398;28;20045;-68
2022/08/09 06:48:14;;;;;;;3.45;1.05;;;19.00;85.60;;;;;;10399613;28;20032;-67
2022/08/09 06:53:15;;;;;;;1.77;1.30;;;19.00;85.60;;;;;;10400062;28;20082;-68
2022/08/09 06:58:15;;;;;;;0.90;0.90;;;19.00;85.50;;;;;;10399249;28;20066;-68
2022/08/09 07:03:16;;;;;;;2.22;1.27;;;19.00;85.40;;;;;;10398819;28;20469;-67
2022/08/09 07:08:17;;;;;;;1.10;0.90;;;19.00;85.30;;;;;;10399079;28;20040;-68
2022/08/09 07:13:19;;;;;;;1.50;1.08;;;19.10;85.30;;;;;;10398464;28;20062;-68
2022/08/09 07:18:20;;;;;;;1.48;1.00;;;19.20;85.40;;;;;;10398771;28;20445;-66
2022/08/09 07:23:21;;;;;;;1.40;1.02;;;19.10;85.20;;;;;;10398918;28;20041;-67
2022/08/09 07:28:22;;;;;;;1.10;1.00;;;19.10;85.20;;;;;;10398160;28;20082;-67
2022/08/09 07:33:22;;;;;;;1.00;0.90;;;19.20;85.20;;;;;;10397758;28;20088;-73
2022/08/09 07:38:24;;;;;;;1.13;1.00;;;19.20;85.20;;;;;;10397238;28;20104;-69
2022/08/09 07:43:24;;;;;;;2.95;1.05;;;19.20;85.20;;;;;;10396258;28;20033;-69
2022/08/09 07:48:25;;;;;;;1.10;1.00;;;19.20;85.20;;;;;;10397400;28;20033;-70
2022/08/09 07:53:26;;;;;;;1.38;0.90;;;19.30;85.10;;;;;;10398131;28;20453;-67
2022/08/09 07:58:27;;;;;;;0.98;0.88;;;19.30;85.10;;;;;;10397506;28;20132;-67
2022/08/09 08:03:28;;;;;;;1.20;1.00;;;19.30;85.00;;;;;;10396510;28;20065;-67
2022/08/09 08:08:28;;;;;;;1.55;0.90;;;19.40;85.00;;;;;;10397575;28;20037;-69
2022/08/09 08:13:31;;;;;;;1.27;1.08;;;19.50;85.00;;;;;;10396725;28;20049;-70
2022/08/09 08:18:31;;;;;;;1.83;0.98;;;19.40;84.90;;;;;;10396756;28;20109;-67
2022/08/09 08:23:32;;;;;;;1.83;1.15;;;19.50;84.90;;;;;;10396254;28;20042;-66
2022/08/09 08:28:33;;;;;;;1.42;1.10;;;19.50;84.90;;;;;;10396632;28;20041;-69
2022/08/09 08:33:34;;;;;;;2.17;1.33;;;19.60;84.90;;;;;;10396671;28;20033;-67
2022/08/09 08:38:37;;;;;;;1.00;0.90;;;19.60;84.80;;;;;;10395919;28;20029;-69
2022/08/09 08:43:38;;;;;;;1.15;0.88;;;19.60;84.80;;;;;;10396570;28;20041;-67
2022/08/09 08:48:41;;;;;;;1.42;0.77;;;19.70;84.80;;;;;;10401436;28;20040;-67
2022/08/09 08:53:42;;;;;;;1.27;0.90;;;19.70;84.70;;;;;;10403095;28;20532;-67
2022/08/09 08:58:43;;;;;;;1.42;0.75;;;19.80;84.70;;;;;;10402865;28;20143;-68
2022/08/09 09:03:46;;;;;;;1.77;1.02;;;19.80;84.70;;;;;;10402654;28;20144;-69
2022/08/09 09:08:48;;;;;;;0.75;0.75;;;19.80;84.70;;;;;;10402328;28;20058;-70
2022/08/09 09:13:52;;;;;;;0.90;0.70;;;19.90;85.20;;;;;;10402340;28;20105;-67
2022/08/09 09:18:54;;;;;;;1.38;0.70;;;20.00;84.50;;;;;;10401972;28;20369;-68
2022/08/09 09:23:54;;;;;;;0.73;0.73;;;20.00;84.40;;;;;;10401888;28;20042;-68
2022/08/09 09:28:55;;;;;;;0.70;0.70;;;20.10;84.40;;;;;;10401827;28;20014;-66
2022/08/09 09:34:11;;;;;;;1.10;0.88;;;20.10;84.40;;;;;;10401764;28;20029;-67
2022/08/09 09:39:12;;;;;;;1.67;0.90;;;20.20;84.50;;;;;;10401633;28;20106;-67
2022/08/09 09:44:18;;;;;;;0.70;0.70;;;20.20;84.40;;;;;;10383775;28;20138;-67
2022/08/09 09:49:21;;;;;;;0.90;0.70;;;20.20;84.40;;;;;;10401214;28;20098;-67
2022/08/09 09:54:22;;;;;;;0.73;0.70;;;20.20;84.40;;;;;;10401362;28;20037;-67
2022/08/09 09:59:33;;;;;;;3.25;0.90;;;20.20;84.30;;;;;;10399994;28;20033;-66
2022/08/09 10:04:34;;;;;;;1.85;0.80;;;20.30;84.30;;;;;;10400813;28;20452;-67
2022/08/09 10:09:47;;;;;;;0.75;0.75;;;20.40;84.10;;;;;;10400706;28;20036;-69
2022/08/09 10:14:48;;;;;;;0.82;0.73;;;20.50;84.20;;;;;;10400480;28;20044;-67
2022/08/09 10:19:49;;;;;;;1.20;0.90;;;20.50;84.00;;;;;;10400480;28;20042;-67
2022/08/09 10:24:51;;;;;;;0.82;0.70;;;20.60;84.00;;;;;;10400124;28;20120;-69
2022/08/09 10:29:52;;;;;;;1.08;0.70;;;20.60;83.90;;;;;;10382600;28;20041;-67
2022/08/09 10:34:54;;;;;;;1.52;0.70;;;20.70;83.90;;;;;;10400205;28;20041;-67
2022/08/09 10:39:55;;;;;;;1.15;0.80;;;20.70;83.90;;;;;;10400159;28;20017;-69
2022/08/09 10:45:03;;;;;;;0.70;0.70;;;20.70;83.90;;;;;;10399458;28;20481;-69
2022/08/09 10:51:08;;;;;;;1.05;0.90;;;20.80;83.90;;;;;;10399367;28;20089;-67
2022/08/09 10:56:25;;;;;;;0.90;0.63;;;20.90;84.00;;;;;;10440236;28;20104;-67
2022/08/09 11:01:31;;;;;;;1.15;0.75;;;20.90;83.80;;;;;;10398742;28;20039;-68
2022/08/09 11:06:34;;;;;;;2.25;0.77;;;21.00;83.70;;;;;;10399027;28;20033;-67
2022/08/09 11:11:53;;;;;;;1.88;0.80;;;21.00;83.70;;;;;;10398606;28;20029;-71
2022/08/09 11:16:55;;;;;;;1.15;0.80;;;21.10;83.80;;;;;;10398668;28;20021;-66
2022/08/09 11:21:57;;;;;;;1.15;1.05;;;21.10;83.50;;;;;;10398507;28;20045;-72
2022/08/09 11:26:58;;;;;;;1.08;0.70;;;21.20;83.50;;;;;;10398674;28;20021;-67
2022/08/09 11:31:59;;;;;;;1.42;0.70;;;21.30;83.40;;;;;;10398444;28;21512;-70
2022/08/09 11:37:02;;;;;;;0.88;0.70;;;21.40;83.40;;;;;;10398034;28;20026;-68
2022/08/09 11:42:09;;;;;;;1.02;0.80;;;21.40;83.30;;;;;;10397762;28;20040;-67
2022/08/09 11:47:10;;;;;;;1.05;0.70;;;21.50;83.30;;;;;;10397887;28;20090;-67
2022/08/09 11:52:10;;;;;;;0.85;0.50;;;21.60;83.20;;;;;;10397442;28;20110;-67
2022/08/09 11:57:37;;;;;;;1.13;0.65;;;21.60;83.10;;;;;;10397407;28;20036;-68
2022/08/09 12:02:38;;;;;;;0.60;0.57;;;21.80;83.10;;;;;;10396666;28;20044;-67
2022/08/09 12:07:39;;;;;;;0.90;0.68;;;21.80;82.90;;;;;;10397233;28;20538;-67
2022/08/09 12:12:48;;;;;;;0.60;0.60;;;21.90;82.90;;;;;;10397262;28;20041;-66
2022/08/09 12:17:49;;;;;;;0.98;0.60;;;22.00;82.80;;;;;;10396832;28;20028;-67
2022/08/09 12:22:54;;;;;;;0.85;0.60;;;22.00;82.80;;;;;;10394384;28;20030;-68
2022/08/09 12:28:27;;;;;;;1.38;0.70;;;22.00;83.00;;;;;;10396690;28;20038;-66
2022/08/09 12:33:29;;;;;;;1.67;0.68;;;22.10;83.20;;;;;;10418239;28;20046;-70
2022/08/09 12:38:30;;;;;;;0.60;0.60;;;22.10;83.00;;;;;;10396160;28;20029;-69
2022/08/09 12:43:31;;;;;;;0.70;0.70;;;22.20;83.20;;;;;;10396025;28;20038;-68
2022/08/09 12:48:33;;;;;;;1.10;0.60;;;22.20;83.20;;;;;;10395777;28;20398;-67
2022/08/09 12:53:37;;;;;;;1.02;0.93;;;22.30;83.10;;;;;;10395889;28;20026;-67
2022/08/09 12:58:40;;;;;;;2.03;0.60;;;22.40;83.00;;;;;;10395785;28;20051;-68
2022/08/09 13:03:41;;;;;;;0.60;0.50;;;22.50;83.10;;;;;;10395182;28;20045;-66
2022/08/09 13:08:57;;;;;;;0.55;0.50;;;22.50;83.00;;;;;;10395574;28;20058;-71
2022/08/09 13:13:58;;;;;;;0.60;0.60;;;22.60;83.20;;;;;;10395335;28;20448;-67
2022/08/09 13:18:59;;;;;;;0.90;0.60;;;22.70;83.10;;;;;;10394927;28;20131;-68
2022/08/09 13:24:07;;;;;;;0.50;0.50;;;22.70;83.20;;;;;;10394900;28;20190;-66
2022/08/09 13:29:12;;;;;;;0.88;0.70;;;22.80;83.20;;;;;;10395126;28;20025;-68
2022/08/09 13:34:12;;;;;;;0.90;0.60;;;22.90;83.30;;;;;;10399696;28;20065;-68
2022/08/09 13:39:15;;;;;;;2.47;0.60;;;23.00;83.10;;;;;;10401704;28;20029;-68
2022/08/09 13:44:16;;;;;;;0.50;0.50;;;23.00;83.00;;;;;;10401781;28;20041;-68
2022/08/09 13:49:16;;;;;;;1.40;0.70;;;23.10;82.90;;;;;;10383699;28;20022;-66
2022/08/09 13:54:17;;;;;;;0.70;0.55;;;23.20;83.50;;;;;;10400652;28;20026;-66
2022/08/09 13:59:18;;;;;;;0.70;0.70;;;23.30;82.80;;;;;;10401287;28;20060;-64
2022/08/09 14:04:19;;;;;;;2.83;0.70;;;23.40;82.70;;;;;;10401164;28;20473;-67
2022/08/09 14:09:20;;;;;;;1.45;1.25;;;23.70;81.80;;;;;;10401559;28;20047;-68
2022/08/09 14:14:21;;;;;;;0.60;0.60;;;23.80;81.60;;;;;;10401451;28;20042;-65
2022/08/09 14:19:23;;;;;;;2.45;0.73;;;23.90;81.60;;;;;;10400469;28;20162;-66
2022/08/09 14:24:24;;;;;;;3.25;0.60;;;23.90;81.50;;;;;;10400048;28;20122;-66
2022/08/09 14:29:24;;;;;;;1.08;0.85;;;24.00;81.40;;;;;;10400303;28;20075;-67
2022/08/09 14:34:25;;;;;;;0.60;0.60;;;24.00;81.50;;;;;;10400052;28;20116;-66
2022/08/09 14:39:26;;;;;;;1.67;0.60;;;24.10;81.60;;;;;;10399522;28;20034;-66
2022/08/09 14:44:27;;;;;;;1.38;0.70;;;24.20;81.30;;;;;;10399035;28;20053;-66
2022/08/09 14:49:27;;;;;;;1.60;0.60;;;24.30;81.50;;;;;;10399153;28;20053;-67
2022/08/09 14:54:28;;;;;;;0.82;0.40;;;24.40;81.10;;;;;;10399101;28;20034;-65
2022/08/09 14:59:29;;;;;;;0.80;0.60;;;24.50;81.20;;;;;;10399435;28;20036;-66
2022/08/09 15:04:29;;;;;;;0.60;0.60;;;24.50;81.00;;;;;;10398531;28;20041;-71
2022/08/09 15:09:30;;;;;;;1.15;0.60;;;24.70;80.90;;;;;;10398599;28;20049;-71
2022/08/09 15:14:31;;;;;;;0.60;0.40;;;24.70;80.90;;;;;;10398740;28;20098;-67
2022/08/09 15:19:32;;;;;;;0.70;0.70;;;24.80;80.90;;;;;;10398696;28;20044;-66
2022/08/09 15:24:32;;;;;;;0.60;0.60;;;24.90;81.00;;;;;;10398304;28;20033;-66
2022/08/09 15:29:33;;;;;;;0.80;0.70;;;25.00;80.70;;;;;;10398199;28;20010;-66
2022/08/09 15:34:34;;;;;;;1.05;0.60;;;25.10;80.60;;;;;;10398252;28;20552;-66
2022/08/09 15:39:35;;;;;;;0.60;0.57;;;25.20;80.60;;;;;;10397871;28;20117;-66
2022/08/09 15:44:36;;;;;;;0.80;0.50;;;25.30;80.50;;;;;;10380665;28;20044;-66
2022/08/09 15:49:37;;;;;;;1.60;0.50;;;25.40;80.50;;;;;;10397946;28;20024;-67
2022/08/09 15:54:38;;;;;;;0.50;0.50;;;25.40;80.30;;;;;;10396828;28;20150;-69
2022/08/09 15:59:38;;;;;;;0.68;0.68;;;25.40;80.20;;;;;;10397126;28;20092;-68
2022/08/09 16:04:40;;;;;;;0.60;0.60;;;25.40;80.10;;;;;;10396743;28;20052;-69
2022/08/09 16:09:41;;;;;;;0.93;0.70;;;25.50;80.30;;;;;;10395252;28;20442;-68
2022/08/09 16:14:42;;;;;;;1.85;0.57;;;25.50;80.10;;;;;;10396937;28;20036;-68
2022/08/09 16:19:43;;;;;;;0.68;0.50;;;25.40;80.30;;;;;;10396562;28;20021;-67
2022/08/09 16:24:44;;;;;;;0.68;0.68;;;25.40;81.00;;;;;;10396187;28;20497;-67
2022/08/09 16:29:45;;;;;;;0.80;0.70;;;25.30;80.70;;;;;;10395760;28;20047;-68
2022/08/09 16:34:46;;;;;;;0.88;0.85;;;25.20;80.70;;;;;;10396395;28;20032;-67
2022/08/09 16:39:47;;;;;;;0.50;0.50;;;25.10;81.20;;;;;;10378385;28;20017;-66
2022/08/09 16:44:51;;;;;;;2.05;0.60;;;25.00;81.10;;;;;;10396036;28;20104;-67
2022/08/09 16:49:52;;;;;;;0.43;0.40;;;25.00;81.20;;;;;;10378046;28;20033;-66
2022/08/09 16:54:53;;;;;;;1.50;0.60;;;24.90;81.40;;;;;;10395377;28;20546;-67
2022/08/09 16:59:54;;;;;;;0.50;0.50;;;24.80;81.50;;;;;;10395729;28;20447;-67
2022/08/09 17:04:55;;;;;;;2.00;0.60;;;24.70;81.60;;;;;;10394708;28;20057;-68
2022/08/09 17:09:56;;;;;;;0.95;0.50;;;24.70;81.70;;;;;;10400755;28;20076;-68
2022/08/09 17:14:57;;;;;;;0.60;0.50;;;24.60;81.80;;;;;;10402107;28;20032;-67
2022/08/09 17:19:59;;;;;;;1.02;0.70;;;24.60;82.00;;;;;;10402256;28;20052;-67
2022/08/09 17:25:01;;;;;;;1.40;0.65;;;24.50;82.00;;;;;;10402113;28;20038;-67
2022/08/09 17:30:04;;;;;;;2.10;0.90;;;24.50;82.30;;;;;;10401788;28;20024;-66
2022/08/09 17:35:06;;;;;;;2.25;0.98;;;24.30;80.40;;;;;;10401878;28;20065;-65
2022/08/09 17:40:08;;;;;;;2.20;0.80;;;23.90;80.00;;;;;;10401438;28;20023;-65
2022/08/09 17:45:09;;;;;;;1.00;0.77;;;23.60;80.00;;;;;;10400909;28;20380;-65
2022/08/09 17:50:10;;;;;;;1.98;0.80;;;23.40;79.80;;;;;;10401484;28;20551;-65
2022/08/09 17:55:15;;;;;;;4.38;1.05;;;23.20;79.50;;;;;;10400735;28;20025;-66
2022/08/09 18:00:16;;;;;;;2.22;0.90;;;23.10;79.60;;;;;;10400528;28;20047;-65
2022/08/09 18:05:17;;;;;;;3.30;2.10;;;23.00;79.90;;;;;;10400448;28;20474;-68
2022/08/09 18:10:18;;;;;;;1.10;1.00;;;22.90;79.50;;;;;;10400355;28;20032;-66
2022/08/09 18:15:20;;;;;;;2.55;1.00;;;22.70;79.60;;;;;;10400057;28;20112;-65
2022/08/09 18:20:21;;;;;;;1.35;0.80;;;22.60;79.60;;;;;;10398975;28;20080;-66
2022/08/09 18:25:22;;;;;;;2.17;0.90;;;22.40;79.70;;;;;;10398639;28;20044;-65
2022/08/09 18:30:23;;;;;;;1.63;0.90;;;22.30;79.80;;;;;;10399402;28;20018;-68
2022/08/09 18:35:24;;;;;;;2.92;0.80;;;22.20;80.10;;;;;;10398432;28;20065;-65
2022/08/09 18:40:25;;;;;;;2.50;0.90;;;22.00;80.10;;;;;;10399680;28;20110;-66
2022/08/09 18:45:26;;;;;;;1.90;1.60;;;21.90;80.10;;;;;;10399205;28;20498;-66
2022/08/09 18:50:27;;;;;;;4.90;2.20;;;21.80;80.20;;;;;;10398943;28;20064;-67
2022/08/09 18:55:28;;;;;;;2.13;1.17;;;21.70;80.30;;;;;;10398981;28;20029;-65
2022/08/09 19:00:29;;;;;;;1.35;0.80;;;21.60;80.60;;;;;;10398840;28;20042;-65
2022/08/09 19:05:30;;;;;;;0.85;0.60;;;21.40;80.70;;;;;;10397470;28;20426;-67
2022/08/09 19:10:32;;;;;;;2.65;1.17;;;21.30;80.90;;;;;;10397500;28;20044;-65
2022/08/09 19:15:33;;;;;;;4.05;1.00;;;21.20;80.90;;;;;;10398246;28;20195;-66
2022/08/09 19:20:34;;;;;;;1.02;0.70;;;21.10;81.10;;;;;;10397605;28;20048;-66
2022/08/09 19:25:35;;;;;;;0.60;0.60;;;20.90;81.20;;;;;;10396867;28;20168;-69
2022/08/09 19:30:38;;;;;;;1.55;0.90;;;20.90;81.20;;;;;;10395859;28;20034;-69
2022/08/09 19:35:39;;;;;;;1.73;1.20;;;20.80;81.30;;;;;;10396176;28;20077;-65
2022/08/09 19:40:40;;;;;;;1.23;0.77;;;20.70;81.40;;;;;;10395745;28;20034;-66
2022/08/09 19:45:41;;;;;;;1.85;0.80;;;20.60;81.60;;;;;;10399998;28;20037;-66
2022/08/09 19:50:42;;;;;;;1.00;0.70;;;20.40;81.90;;;;;;10406500;28;20025;-66
2022/08/09 19:55:43;;;;;;;1.23;0.68;;;20.30;82.10;;;;;;10406326;28;20435;-65
2022/08/09 20:00:45;;;;;;;0.75;0.70;;;20.30;82.20;;;;;;10406020;28;20082;-65
2022/08/09 20:05:46;;;;;;;4.43;0.85;;;20.20;82.30;;;;;;10406165;28;20045;-66
2022/08/09 20:10:46;;;;;;;2.47;0.98;;;20.10;82.50;;;;;;10405729;28;20026;-67
2022/08/09 20:15:48;;;;;;;2.15;1.00;;;20.00;82.70;;;;;;10388196;28;20078;-66
2022/08/09 20:20:49;;;;;;;1.00;0.90;;;19.90;82.80;;;;;;10405478;28;20033;-68
2022/08/09 20:25:51;;;;;;;0.77;0.70;;;20.00;82.80;;;;;;10405464;28;20385;-68
2022/08/09 20:30:52;;;;;;;12.68;1.05;;;20.30;82.30;;;;;;10405476;28;20021;-68
2022/08/09 20:35:53;;;;;;;1.27;1.15;;;20.60;81.80;;;;;;10405173;28;20047;-69
2022/08/09 20:40:53;;;;;;;1.23;0.70;;;20.80;81.30;;;;;;10405369;28;20071;-68
2022/08/09 20:45:54;;;;;;;0.77;0.70;;;21.00;81.10;;;;;;10412079;28;20489;-68
2022/08/09 20:50:55;;;;;;;2.55;1.00;;;21.10;80.90;;;;;;10412368;28;20025;-68
2022/08/09 20:55:56;;;;;;;0.75;0.60;;;21.30;80.90;;;;;;10412171;28;20071;-67
2022/08/09 21:00:57;;;;;;;1.20;1.10;;;21.30;80.80;;;;;;10412154;28;20358;-67
2022/08/09 21:05:57;;;;;;;1.70;0.60;;;21.40;80.70;;;;;;10411386;28;20101;-69
2022/08/09 21:10:58;;;;;;;2.13;0.80;;;21.70;80.80;;;;;;10411243;28;20036;-69
2022/08/09 21:15:59;;;;;;;0.98;0.68;;;21.40;80.60;;;;;;10409816;28;20117;-69
2022/08/09 21:21:01;;;;;;;2.10;0.63;;;21.40;80.60;;;;;;10409936;28;20018;-71
2022/08/09 21:26:02;;;;;;;1.17;1.08;;;21.50;80.70;;;;;;10409779;28;20037;-69
2022/08/09 21:31:05;;;;;;;1.10;0.70;;;21.50;80.70;;;;;;10408474;28;20057;-71
2022/08/09 21:36:06;;;;;;;1.30;0.75;;;21.50;80.70;;;;;;10408860;28;20507;-69
2022/08/09 21:41:07;;;;;;;0.80;0.80;;;21.50;80.70;;;;;;10408251;28;20109;-70
2022/08/09 21:46:07;;;;;;;1.52;0.52;;;21.50;80.70;;;;;;10410035;28;20120;-69
2022/08/09 21:51:08;;;;;;;1.02;0.90;;;21.50;80.80;;;;;;10410780;28;20030;-68
2022/08/09 21:56:08;;;;;;;1.70;0.80;;;21.40;80.80;;;;;;10410532;28;20040;-70
2022/08/09 22:01:09;;;;;;;1.00;0.77;;;21.40;80.70;;;;;;10410182;28;20112;-68
2022/08/09 22:06:10;;;;;;;1.40;0.90;;;21.40;80.70;;;;;;10409924;28;20072;-69
2022/08/09 22:11:11;;;;;;;2.30;0.63;;;21.40;80.80;;;;;;10409558;28;20040;-69
2022/08/09 22:16:11;;;;;;;0.80;0.73;;;21.40;80.80;;;;;;10409683;28;20113;-69
2022/08/09 22:21:12;;;;;;;1.15;0.80;;;21.30;80.70;;;;;;10409385;28;20029;-70
2022/08/09 22:26:13;;;;;;;1.10;0.80;;;21.40;80.80;;;;;;10408714;28;20206;-68
2022/08/09 22:31:13;;;;;;;2.08;0.80;;;21.30;80.80;;;;;;10408739;28;20075;-68
2022/08/09 22:36:14;;;;;;;1.00;0.90;;;21.30;80.80;;;;;;10409519;28;20128;-69
2022/08/09 22:41:15;;;;;;;0.70;0.70;;;21.30;80.90;;;;;;10409246;28;20062;-70
2022/08/09 22:46:16;;;;;;;1.08;0.98;;;21.20;80.90;;;;;;10408709;28;20033;-70
2022/08/09 22:51:17;;;;;;;1.33;0.90;;;21.30;81.00;;;;;;10408518;28;20025;-69
2022/08/09 22:56:18;;;;;;;1.70;1.00;;;21.20;80.90;;;;;;10408592;28;20026;-70
2022/08/09 23:01:19;;;;;;;1.10;1.00;;;21.20;81.00;;;;;;10408310;28;20409;-69
2022/08/09 23:06:20;;;;;;;1.02;0.93;;;21.20;81.10;;;;;;10407419;28;20061;-68
2022/08/09 23:11:21;;;;;;;1.50;1.08;;;21.10;81.00;;;;;;10408029;28;20064;-69
2022/08/09 23:16:22;;;;;;;1.00;0.90;;;21.10;81.10;;;;;;10408087;28;20061;-69
2022/08/09 23:21:23;;;;;;;1.20;1.08;;;21.10;81.10;;;;;;10407604;28;20037;-68
2022/08/09 23:26:23;;;;;;;1.33;0.95;;;21.10;81.10;;;;;;10407461;28;20034;-68
2022/08/09 23:31:24;;;;;;;1.55;0.80;;;21.10;81.10;;;;;;10407322;28;20454;-68
2022/08/09 23:36:25;;;;;;;1.67;1.15;;;21.00;81.10;;;;;;10407151;28;20515;-69
2022/08/09 23:41:26;;;;;;;1.25;1.10;;;21.00;81.20;;;;;;10407160;28;20025;-68
2022/08/09 23:46:28;;;;;;;2.10;1.10;;;21.00;81.20;;;;;;10406968;28;20128;-69
2022/08/09 23:51:29;;;;;;;1.40;1.30;;;21.00;81.20;;;;;;10406969;28;20034;-69
2022/08/09 23:56:34;;;;;;;1.17;0.88;;;20.90;81.20;;;;;;10406543;28;20043;-68
